sensor_id;sensor_type;location;lat;lon;timestamp;pressure;altitude;pressure_sealevel;temperature;humidity
36138;BME280;22194;50.046;21.954;2022-12-18T00:00:07;100218.15;;;-5.19;78.66
36138;BME280;22194;50.046;21.954;2022-12-18T00:02:55;100220.58;;;-5.17;78.74
36138;BME280;22194;50.046;21.954;2022-12-18T00:05:24;100222.68;;;-5.15;78.69
36138;BME280;22194;50.046;21.954;2022-12-18T00:07:52;100225.98;;;-5.14;78.64
36138;BME280;22194;50.046;21.954;2022-12-18T00:10:20;100232.40;;;-5.12;78.64
36138;BME280;22194;50.046;21.954;2022-12-18T00:12:48;100238.13;;;-5.10;78.52
36138;BME280;22194;50.046;21.954;2022-12-18T00:15:16;100242.97;;;-5.10;78.39
36138;BME280;22194;50.046;21.954;2022-12-18T00:17:44;100244.36;;;-5.10;78.53
36138;BME280;22194;50.046;21.954;2022-12-18T00:20:12;100245.60;;;-5.06;78.65
36138;BME280;22194;50.046;21.954;2022-12-18T00:22:40;100257.20;;;-5.04;78.72
36138;BME280;22194;50.046;21.954;2022-12-18T00:25:08;100257.20;;;-5.04;78.49
36138;BME280;22194;50.046;21.954;2022-12-18T00:27:36;100263.11;;;-5.02;78.60
36138;BME280;22194;50.046;21.954;2022-12-18T00:30:05;100264.51;;;-5.00;78.73
36138;BME280;22194;50.046;21.954;2022-12-18T00:32:33;100268.14;;;-5.01;78.73
36138;BME280;22194;50.046;21.954;2022-12-18T00:35:00;100272.62;;;-5.03;78.49
36138;BME280;22194;50.046;21.954;2022-12-18T00:37:29;100278.35;;;-5.01;78.66
36138;BME280;22194;50.046;21.954;2022-12-18T00:39:57;100282.17;;;-4.99;78.55
36138;BME280;22194;50.046;21.954;2022-12-18T00:42:25;100287.00;;;-5.00;78.65
36138;BME280;22194;50.046;21.954;2022-12-18T00:45:11;100291.99;;;-5.03;78.46
36138;BME280;22194;50.046;21.954;2022-12-18T00:47:40;100294.08;;;-5.02;78.54
36138;BME280;22194;50.046;21.954;2022-12-18T00:50:09;100296.84;;;-5.02;78.63
36138;BME280;22194;50.046;21.954;2022-12-18T00:52:40;100306.16;;;-5.05;78.59
36138;BME280;22194;50.046;21.954;2022-12-18T00:55:10;100307.52;;;-5.07;78.62
36138;BME280;22194;50.046;21.954;2022-12-18T00:57:38;100315.97;;;-5.09;78.53
36138;BME280;22194;50.046;21.954;2022-12-18T01:00:11;100317.16;;;-5.12;78.50
36138;BME280;22194;50.046;21.954;2022-12-18T01:02:41;100321.27;;;-5.15;78.68
36138;BME280;22194;50.046;21.954;2022-12-18T01:05:11;100328.71;;;-5.16;78.65
36138;BME280;22194;50.046;21.954;2022-12-18T01:07:40;100335.10;;;-5.16;78.66
36138;BME280;22194;50.046;21.954;2022-12-18T01:10:10;100338.21;;;-5.16;78.62
36138;BME280;22194;50.046;21.954;2022-12-18T01:12:39;100341.82;;;-5.18;78.61
36138;BME280;22194;50.046;21.954;2022-12-18T01:15:10;100346.65;;;-5.20;78.62
36138;BME280;22194;50.046;21.954;2022-12-18T01:17:39;100347.79;;;-5.24;78.42
36138;BME280;22194;50.046;21.954;2022-12-18T01:20:10;100356.41;;;-5.26;78.54
36138;BME280;22194;50.046;21.954;2022-12-18T01:22:38;100355.36;;;-5.27;78.65
36138;BME280;22194;50.046;21.954;2022-12-18T01:25:07;100366.24;;;-5.28;78.60
36138;BME280;22194;50.046;21.954;2022-12-18T01:27:35;100372.11;;;-5.30;78.53
36138;BME280;22194;50.046;21.954;2022-12-18T01:30:04;100379.49;;;-5.33;78.59
36138;BME280;22194;50.046;21.954;2022-12-18T01:32:33;100382.20;;;-5.37;78.39
36138;BME280;22194;50.046;21.954;2022-12-18T01:35:01;100381.42;;;-5.44;78.23
36138;BME280;22194;50.046;21.954;2022-12-18T01:37:29;100389.30;;;-5.50;78.35
36138;BME280;22194;50.046;21.954;2022-12-18T01:39:57;100388.94;;;-5.51;78.44
36138;BME280;22194;50.046;21.954;2022-12-18T01:42:25;100387.34;;;-5.54;78.38
36138;BME280;22194;50.046;21.954;2022-12-18T01:50:17;100397.14;;;-5.69;78.46
36138;BME280;22194;50.046;21.954;2022-12-18T01:52:49;100401.61;;;-5.72;78.36
36138;BME280;22194;50.046;21.954;2022-12-18T01:55:20;100404.19;;;-5.73;78.47
36138;BME280;22194;50.046;21.954;2022-12-18T01:57:52;100404.02;;;-5.73;78.52
36138;BME280;22194;50.046;21.954;2022-12-18T02:00:23;100405.89;;;-5.74;78.44
36138;BME280;22194;50.046;21.954;2022-12-18T02:02:52;100412.65;;;-5.73;78.60
36138;BME280;22194;50.046;21.954;2022-12-18T02:08:22;100413.88;;;-5.72;78.43
36138;BME280;22194;50.046;21.954;2022-12-18T02:18:48;100420.71;;;-5.76;78.50
36138;BME280;22194;50.046;21.954;2022-12-18T02:27:00;100417.48;;;-5.84;78.50
36138;BME280;22194;50.046;21.954;2022-12-18T02:29:54;100416.27;;;-5.84;78.55
36138;BME280;22194;50.046;21.954;2022-12-18T02:32:29;100419.34;;;-5.86;78.47
36138;BME280;22194;50.046;21.954;2022-12-18T02:34:59;100425.42;;;-5.85;78.59
36138;BME280;22194;50.046;21.954;2022-12-18T02:37:31;100431.66;;;-5.84;78.53
36138;BME280;22194;50.046;21.954;2022-12-18T02:40:01;100437.55;;;-5.82;78.46
36138;BME280;22194;50.046;21.954;2022-12-18T02:42:32;100438.98;;;-5.79;78.57
36138;BME280;22194;50.046;21.954;2022-12-18T02:45:00;100444.10;;;-5.73;78.70
36138;BME280;22194;50.046;21.954;2022-12-18T02:47:31;100450.19;;;-5.71;78.87
36138;BME280;22194;50.046;21.954;2022-12-18T02:50:22;100448.33;;;-5.67;78.74
36138;BME280;22194;50.046;21.954;2022-12-18T02:53:22;100449.42;;;-5.64;78.72
36138;BME280;22194;50.046;21.954;2022-12-18T02:56:30;100453.61;;;-5.61;78.51
36138;BME280;22194;50.046;21.954;2022-12-18T02:59:12;100458.94;;;-5.63;78.76
36138;BME280;22194;50.046;21.954;2022-12-18T03:02:04;100459.48;;;-5.62;78.71
36138;BME280;22194;50.046;21.954;2022-12-18T03:04:41;100459.33;;;-5.60;78.71
36138;BME280;22194;50.046;21.954;2022-12-18T03:07:23;100464.50;;;-5.61;78.65
36138;BME280;22194;50.046;21.954;2022-12-18T03:09:55;100466.58;;;-5.61;78.64
36138;BME280;22194;50.046;21.954;2022-12-18T03:12:30;100465.05;;;-5.60;78.71
36138;BME280;22194;50.046;21.954;2022-12-18T03:15:02;100470.02;;;-5.61;78.68
36138;BME280;22194;50.046;21.954;2022-12-18T03:17:33;100470.19;;;-5.62;78.63
36138;BME280;22194;50.046;21.954;2022-12-18T03:20:13;100476.23;;;-5.62;78.63
36138;BME280;22194;50.046;21.954;2022-12-18T03:22:44;100477.30;;;-5.61;78.64
36138;BME280;22194;50.046;21.954;2022-12-18T03:25:14;100487.18;;;-5.59;78.67
36138;BME280;22194;50.046;21.954;2022-12-18T03:27:48;100491.86;;;-5.58;78.63
36138;BME280;22194;50.046;21.954;2022-12-18T03:30:19;100494.47;;;-5.57;78.73
36138;BME280;22194;50.046;21.954;2022-12-18T03:32:53;100498.48;;;-5.55;78.63
36138;BME280;22194;50.046;21.954;2022-12-18T03:35:31;100497.61;;;-5.56;78.62
36138;BME280;22194;50.046;21.954;2022-12-18T03:38:01;100500.56;;;-5.54;78.74
36138;BME280;22194;50.046;21.954;2022-12-18T03:40:37;100501.98;;;-5.51;78.60
36138;BME280;22194;50.046;21.954;2022-12-18T03:43:19;100509.11;;;-5.49;78.72
36138;BME280;22194;50.046;21.954;2022-12-18T03:45:53;100512.76;;;-5.48;78.76
36138;BME280;22194;50.046;21.954;2022-12-18T03:50:59;100529.17;;;-5.48;78.59
36138;BME280;22194;50.046;21.954;2022-12-18T03:53:52;100532.61;;;-5.50;78.53
36138;BME280;22194;50.046;21.954;2022-12-18T03:56:18;100531.52;;;-5.54;78.53
36138;BME280;22194;50.046;21.954;2022-12-18T03:58:49;100537.67;;;-5.58;78.51
36138;BME280;22194;50.046;21.954;2022-12-18T04:01:20;100538.29;;;-5.62;78.40
36138;BME280;22194;50.046;21.954;2022-12-18T04:03:50;100545.30;;;-5.67;78.42
36138;BME280;22194;50.046;21.954;2022-12-18T04:06:19;100548.36;;;-5.70;78.30
36138;BME280;22194;50.046;21.954;2022-12-18T04:08:48;100548.13;;;-5.73;78.48
36138;BME280;22194;50.046;21.954;2022-12-18T04:11:17;100553.63;;;-5.75;78.33
36138;BME280;22194;50.046;21.954;2022-12-18T04:13:45;100553.59;;;-5.77;78.19
36138;BME280;22194;50.046;21.954;2022-12-18T04:16:13;100561.33;;;-5.79;78.21
36138;BME280;22194;50.046;21.954;2022-12-18T04:18:41;100560.09;;;-5.80;78.31
36138;BME280;22194;50.046;21.954;2022-12-18T04:21:10;100556.77;;;-5.82;78.38
36138;BME280;22194;50.046;21.954;2022-12-18T04:23:38;100557.36;;;-5.88;78.24
36138;BME280;22194;50.046;21.954;2022-12-18T04:26:06;100565.45;;;-5.89;78.15
36138;BME280;22194;50.046;21.954;2022-12-18T04:28:34;100575.10;;;-5.91;78.23
36138;BME280;22194;50.046;21.954;2022-12-18T04:31:02;100581.48;;;-5.92;78.21
36138;BME280;22194;50.046;21.954;2022-12-18T04:33:31;100583.52;;;-5.94;78.14
36138;BME280;22194;50.046;21.954;2022-12-18T04:35:59;100591.80;;;-5.95;78.30
36138;BME280;22194;50.046;21.954;2022-12-18T04:38:27;100595.43;;;-5.94;78.31
36138;BME280;22194;50.046;21.954;2022-12-18T04:40:56;100599.58;;;-5.94;78.31
36138;BME280;22194;50.046;21.954;2022-12-18T04:43:24;100603.38;;;-5.94;78.18
36138;BME280;22194;50.046;21.954;2022-12-18T04:45:52;100600.27;;;-5.94;78.31
36138;BME280;22194;50.046;21.954;2022-12-18T04:48:20;100603.36;;;-5.95;78.26
36138;BME280;22194;50.046;21.954;2022-12-18T04:50:48;100604.56;;;-5.95;78.36
36138;BME280;22194;50.046;21.954;2022-12-18T04:53:16;100611.33;;;-5.94;78.27
36138;BME280;22194;50.046;21.954;2022-12-18T04:55:45;100618.98;;;-5.92;78.36
36138;BME280;22194;50.046;21.954;2022-12-18T04:58:13;100618.13;;;-5.90;78.26
36138;BME280;22194;50.046;21.954;2022-12-18T05:00:41;100616.92;;;-5.90;78.31
36138;BME280;22194;50.046;21.954;2022-12-18T05:03:09;100617.08;;;-5.91;78.37
36138;BME280;22194;50.046;21.954;2022-12-18T05:05:37;100617.27;;;-5.90;78.39
36138;BME280;22194;50.046;21.954;2022-12-18T05:08:05;100623.02;;;-5.88;78.24
36138;BME280;22194;50.046;21.954;2022-12-18T05:10:33;100629.55;;;-5.89;78.14
36138;BME280;22194;50.046;21.954;2022-12-18T05:13:05;100626.26;;;-5.90;78.15
36138;BME280;22194;50.046;21.954;2022-12-18T05:15:33;100629.51;;;-5.92;78.32
36138;BME280;22194;50.046;21.954;2022-12-18T05:18:03;100626.36;;;-5.94;78.26
36138;BME280;22194;50.046;21.954;2022-12-18T05:20:32;100628.63;;;-5.93;78.28
36138;BME280;22194;50.046;21.954;2022-12-18T05:23:00;100636.60;;;-5.90;78.31
36138;BME280;22194;50.046;21.954;2022-12-18T05:25:29;100646.66;;;-5.89;78.34
36138;BME280;22194;50.046;21.954;2022-12-18T05:27:57;100648.77;;;-5.88;78.29
36138;BME280;22194;50.046;21.954;2022-12-18T05:30:26;100657.45;;;-5.85;78.30
36138;BME280;22194;50.046;21.954;2022-12-18T05:32:55;100659.39;;;-5.83;78.16
36138;BME280;22194;50.046;21.954;2022-12-18T05:35:24;100663.59;;;-5.80;78.19
36138;BME280;22194;50.046;21.954;2022-12-18T05:37:52;100662.95;;;-5.78;78.29
36138;BME280;22194;50.046;21.954;2022-12-18T05:40:21;100669.23;;;-5.75;78.18
36138;BME280;22194;50.046;21.954;2022-12-18T05:42:48;100670.48;;;-5.73;78.22
36138;BME280;22194;50.046;21.954;2022-12-18T05:45:17;100672.55;;;-5.73;77.96
36138;BME280;22194;50.046;21.954;2022-12-18T05:47:45;100673.61;;;-5.72;78.07
36138;BME280;22194;50.046;21.954;2022-12-18T05:50:13;100674.50;;;-5.70;78.15
36138;BME280;22194;50.046;21.954;2022-12-18T05:52:41;100680.42;;;-5.68;78.13
36138;BME280;22194;50.046;21.954;2022-12-18T05:55:09;100679.77;;;-5.65;78.31
36138;BME280;22194;50.046;21.954;2022-12-18T05:57:37;100675.66;;;-5.64;78.32
36138;BME280;22194;50.046;21.954;2022-12-18T06:00:05;100676.20;;;-5.63;78.17
36138;BME280;22194;50.046;21.954;2022-12-18T06:02:34;100681.60;;;-5.61;78.13
36138;BME280;22194;50.046;21.954;2022-12-18T06:05:03;100686.98;;;-5.60;78.20
36138;BME280;22194;50.046;21.954;2022-12-18T06:07:31;100678.67;;;-5.60;78.07
36138;BME280;22194;50.046;21.954;2022-12-18T06:09:59;100685.11;;;-5.58;78.37
36138;BME280;22194;50.046;21.954;2022-12-18T06:12:27;100687.60;;;-5.55;78.26
36138;BME280;22194;50.046;21.954;2022-12-18T06:14:55;100690.61;;;-5.50;78.34
36138;BME280;22194;50.046;21.954;2022-12-18T06:17:28;100693.92;;;-5.49;77.96
36138;BME280;22194;50.046;21.954;2022-12-18T06:19:56;100700.16;;;-5.48;78.01
36138;BME280;22194;50.046;21.954;2022-12-18T06:22:25;100705.06;;;-5.45;78.15
36138;BME280;22194;50.046;21.954;2022-12-18T06:24:53;100711.00;;;-5.42;78.31
36138;BME280;22194;50.046;21.954;2022-12-18T06:27:21;100713.45;;;-5.40;78.23
36138;BME280;22194;50.046;21.954;2022-12-18T06:29:49;100715.77;;;-5.36;78.27
36138;BME280;22194;50.046;21.954;2022-12-18T06:32:17;100721.54;;;-5.34;78.12
36138;BME280;22194;50.046;21.954;2022-12-18T06:34:45;100719.84;;;-5.32;78.24
36138;BME280;22194;50.046;21.954;2022-12-18T06:37:13;100725.02;;;-5.32;78.03
36138;BME280;22194;50.046;21.954;2022-12-18T06:39:41;100725.06;;;-5.30;78.30
36138;BME280;22194;50.046;21.954;2022-12-18T06:42:09;100727.72;;;-5.26;78.27
36138;BME280;22194;50.046;21.954;2022-12-18T06:44:37;100732.30;;;-5.22;78.22
36138;BME280;22194;50.046;21.954;2022-12-18T06:47:05;100731.67;;;-5.19;78.27
36138;BME280;22194;50.046;21.954;2022-12-18T06:49:33;100733.23;;;-5.17;78.26
36138;BME280;22194;50.046;21.954;2022-12-18T06:52:02;100735.33;;;-5.17;78.14
36138;BME280;22194;50.046;21.954;2022-12-18T06:54:30;100738.63;;;-5.16;78.05
36138;BME280;22194;50.046;21.954;2022-12-18T06:56:58;100738.16;;;-5.14;78.18
36138;BME280;22194;50.046;21.954;2022-12-18T06:59:26;100738.06;;;-5.09;78.21
36138;BME280;22194;50.046;21.954;2022-12-18T07:01:54;100746.44;;;-5.05;78.08
36138;BME280;22194;50.046;21.954;2022-12-18T07:04:28;100748.02;;;-5.03;78.23
36138;BME280;22194;50.046;21.954;2022-12-18T07:06:56;100753.59;;;-5.02;78.19
36138;BME280;22194;50.046;21.954;2022-12-18T07:09:25;100761.61;;;-4.98;78.18
36138;BME280;22194;50.046;21.954;2022-12-18T07:11:53;100764.80;;;-4.95;78.21
36138;BME280;22194;50.046;21.954;2022-12-18T07:14:22;100765.20;;;-4.92;78.17
36138;BME280;22194;50.046;21.954;2022-12-18T07:16:50;100770.61;;;-4.88;78.24
36138;BME280;22194;50.046;21.954;2022-12-18T07:19:19;100774.42;;;-4.87;78.08
36138;BME280;22194;50.046;21.954;2022-12-18T07:21:46;100781.56;;;-4.86;78.03
36138;BME280;22194;50.046;21.954;2022-12-18T07:24:15;100780.55;;;-4.84;78.08
36138;BME280;22194;50.046;21.954;2022-12-18T07:26:45;100783.89;;;-4.81;77.90
36138;BME280;22194;50.046;21.954;2022-12-18T07:29:14;100790.02;;;-4.78;78.10
36138;BME280;22194;50.046;21.954;2022-12-18T07:31:42;100792.98;;;-4.76;77.99
36138;BME280;22194;50.046;21.954;2022-12-18T07:34:14;100792.85;;;-4.74;78.10
36138;BME280;22194;50.046;21.954;2022-12-18T07:36:43;100799.11;;;-4.72;78.20
36138;BME280;22194;50.046;21.954;2022-12-18T07:39:11;100797.42;;;-4.70;78.16
36138;BME280;22194;50.046;21.954;2022-12-18T07:41:39;100796.06;;;-4.68;77.93
36138;BME280;22194;50.046;21.954;2022-12-18T07:44:14;100798.89;;;-4.65;78.23
36138;BME280;22194;50.046;21.954;2022-12-18T07:46:41;100803.44;;;-4.62;78.14
36138;BME280;22194;50.046;21.954;2022-12-18T07:49:10;100810.06;;;-4.59;78.08
36138;BME280;22194;50.046;21.954;2022-12-18T07:51:37;100812.31;;;-4.59;78.09
36138;BME280;22194;50.046;21.954;2022-12-18T07:54:05;100814.23;;;-4.59;78.16
36138;BME280;22194;50.046;21.954;2022-12-18T07:56:33;100814.44;;;-4.57;78.03
36138;BME280;22194;50.046;21.954;2022-12-18T07:59:03;100818.64;;;-4.54;78.43
36138;BME280;22194;50.046;21.954;2022-12-18T08:01:31;100820.21;;;-4.54;77.86
36138;BME280;22194;50.046;21.954;2022-12-18T08:03:59;100825.70;;;-4.56;77.93
36138;BME280;22194;50.046;21.954;2022-12-18T08:06:27;100824.46;;;-4.58;78.14
36138;BME280;22194;50.046;21.954;2022-12-18T08:08:56;100828.13;;;-4.56;78.18
36138;BME280;22194;50.046;21.954;2022-12-18T08:11:26;100832.48;;;-4.55;78.10
36138;BME280;22194;50.046;21.954;2022-12-18T08:13:55;100836.83;;;-4.54;78.17
36138;BME280;22194;50.046;21.954;2022-12-18T08:16:24;100837.57;;;-4.51;78.42
36138;BME280;22194;50.046;21.954;2022-12-18T08:18:53;100838.65;;;-4.48;78.24
36138;BME280;22194;50.046;21.954;2022-12-18T08:21:25;100842.67;;;-4.45;77.93
36138;BME280;22194;50.046;21.954;2022-12-18T08:23:56;100847.20;;;-4.45;78.04
36138;BME280;22194;50.046;21.954;2022-12-18T08:26:27;100853.13;;;-4.42;78.22
36138;BME280;22194;50.046;21.954;2022-12-18T08:28:58;100855.73;;;-4.41;77.98
36138;BME280;22194;50.046;21.954;2022-12-18T08:31:29;100860.32;;;-4.37;78.20
36138;BME280;22194;50.046;21.954;2022-12-18T08:33:58;100862.61;;;-4.35;78.18
36138;BME280;22194;50.046;21.954;2022-12-18T08:36:26;100866.47;;;-4.32;78.03
36138;BME280;22194;50.046;21.954;2022-12-18T08:38:54;100869.26;;;-4.31;78.30
36138;BME280;22194;50.046;21.954;2022-12-18T08:41:23;100868.58;;;-4.30;78.13
36138;BME280;22194;50.046;21.954;2022-12-18T08:43:51;100872.41;;;-4.28;78.22
36138;BME280;22194;50.046;21.954;2022-12-18T08:46:40;100875.22;;;-4.26;78.17
36138;BME280;22194;50.046;21.954;2022-12-18T08:49:10;100877.33;;;-4.25;78.48
36138;BME280;22194;50.046;21.954;2022-12-18T08:51:39;100878.05;;;-4.23;78.33
36138;BME280;22194;50.046;21.954;2022-12-18T08:54:11;100873.34;;;-4.25;77.91
36138;BME280;22194;50.046;21.954;2022-12-18T08:56:39;100876.66;;;-4.23;78.07
36138;BME280;22194;50.046;21.954;2022-12-18T08:59:08;100878.42;;;-4.21;78.36
36138;BME280;22194;50.046;21.954;2022-12-18T09:01:44;100882.79;;;-4.19;78.26
36138;BME280;22194;50.046;21.954;2022-12-18T09:04:13;100881.62;;;-4.17;78.11
36138;BME280;22194;50.046;21.954;2022-12-18T09:06:41;100885.42;;;-4.17;78.12
36138;BME280;22194;50.046;21.954;2022-12-18T09:09:10;100881.84;;;-4.13;78.15
36138;BME280;22194;50.046;21.954;2022-12-18T09:11:38;100883.25;;;-4.13;78.32
36138;BME280;22194;50.046;21.954;2022-12-18T09:14:08;100881.86;;;-4.13;78.05
36138;BME280;22194;50.046;21.954;2022-12-18T09:16:36;100883.96;;;-4.12;78.29
36138;BME280;22194;50.046;21.954;2022-12-18T09:19:05;100882.94;;;-4.11;78.34
36138;BME280;22194;50.046;21.954;2022-12-18T09:21:35;100887.90;;;-4.14;78.25
36138;BME280;22194;50.046;21.954;2022-12-18T09:24:05;100891.69;;;-4.16;78.14
36138;BME280;22194;50.046;21.954;2022-12-18T09:26:36;100896.17;;;-4.16;78.06
36138;BME280;22194;50.046;21.954;2022-12-18T09:29:06;100897.95;;;-4.15;78.10
36138;BME280;22194;50.046;21.954;2022-12-18T09:31:36;100899.86;;;-4.15;78.25
36138;BME280;22194;50.046;21.954;2022-12-18T09:34:06;100897.64;;;-4.13;78.12
36138;BME280;22194;50.046;21.954;2022-12-18T09:36:35;100899.05;;;-4.12;78.25
36138;BME280;22194;50.046;21.954;2022-12-18T09:39:03;100899.08;;;-4.09;78.05
36138;BME280;22194;50.046;21.954;2022-12-18T09:41:53;100897.55;;;-4.08;78.24
36138;BME280;22194;50.046;21.954;2022-12-18T09:44:40;100898.40;;;-4.09;78.16
36138;BME280;22194;50.046;21.954;2022-12-18T09:49:47;100899.27;;;-4.09;77.95
36138;BME280;22194;50.046;21.954;2022-12-18T09:52:30;100895.93;;;-4.11;78.04
36138;BME280;22194;50.046;21.954;2022-12-18T09:57:49;100895.12;;;-4.07;78.10
36138;BME280;22194;50.046;21.954;2022-12-18T10:00:21;100899.80;;;-4.07;78.30
36138;BME280;22194;50.046;21.954;2022-12-18T10:02:52;100900.82;;;-4.08;78.06
36138;BME280;22194;50.046;21.954;2022-12-18T10:05:46;100902.71;;;-4.09;77.93
36138;BME280;22194;50.046;21.954;2022-12-18T10:08:40;100904.81;;;-4.08;77.96
36138;BME280;22194;50.046;21.954;2022-12-18T10:11:44;100910.23;;;-4.05;78.11
36138;BME280;22194;50.046;21.954;2022-12-18T10:14:27;100907.14;;;-4.03;78.14
36138;BME280;22194;50.046;21.954;2022-12-18T10:20:13;100904.21;;;-4.02;78.05
36138;BME280;22194;50.046;21.954;2022-12-18T10:22:57;100910.59;;;-4.04;78.04
36138;BME280;22194;50.046;21.954;2022-12-18T10:25:35;100909.86;;;-4.06;77.93
36138;BME280;22194;50.046;21.954;2022-12-18T10:28:17;100904.33;;;-4.05;78.02
36138;BME280;22194;50.046;21.954;2022-12-18T10:30:46;100909.23;;;-4.03;78.03
36138;BME280;22194;50.046;21.954;2022-12-18T10:33:18;100916.20;;;-4.00;78.05
36138;BME280;22194;50.046;21.954;2022-12-18T10:35:50;100917.80;;;-3.98;78.07
36138;BME280;22194;50.046;21.954;2022-12-18T10:43:42;100918.41;;;-4.03;77.89
36138;BME280;22194;50.046;21.954;2022-12-18T10:51:08;100923.27;;;-4.13;77.71
36138;BME280;22194;50.046;21.954;2022-12-18T10:53:41;100920.69;;;-4.12;77.79
36138;BME280;22194;50.046;21.954;2022-12-18T10:56:11;100921.58;;;-4.11;77.51
36138;BME280;22194;50.046;21.954;2022-12-18T10:58:39;100920.05;;;-4.09;77.69
36138;BME280;22194;50.046;21.954;2022-12-18T11:01:12;100921.12;;;-4.07;77.72
36138;BME280;22194;50.046;21.954;2022-12-18T11:06:13;100919.91;;;-3.96;77.93
36138;BME280;22194;50.046;21.954;2022-12-18T11:08:43;100917.16;;;-3.95;77.93
36138;BME280;22194;50.046;21.954;2022-12-18T11:11:20;100915.42;;;-3.95;77.83
36138;BME280;22194;50.046;21.954;2022-12-18T11:14:18;100914.92;;;-3.93;77.76
36138;BME280;22194;50.046;21.954;2022-12-18T11:16:50;100917.24;;;-3.90;77.59
36138;BME280;22194;50.046;21.954;2022-12-18T11:19:40;100924.20;;;-3.89;77.59
36138;BME280;22194;50.046;21.954;2022-12-18T11:22:27;100926.30;;;-3.87;77.69
36138;BME280;22194;50.046;21.954;2022-12-18T11:25:00;100925.45;;;-3.86;77.68
36138;BME280;22194;50.046;21.954;2022-12-18T11:27:56;100923.90;;;-3.85;77.58
36138;BME280;22194;50.046;21.954;2022-12-18T11:30:28;100924.44;;;-3.84;77.31
36138;BME280;22194;50.046;21.954;2022-12-18T11:33:11;100922.36;;;-3.84;77.63
36138;BME280;22194;50.046;21.954;2022-12-18T11:35:49;100921.31;;;-3.84;77.16
36138;BME280;22194;50.046;21.954;2022-12-18T11:38:39;100916.42;;;-3.86;77.59
36138;BME280;22194;50.046;21.954;2022-12-18T11:43:55;100914.73;;;-3.84;77.74
36138;BME280;22194;50.046;21.954;2022-12-18T11:46:32;100919.07;;;-3.84;77.41
36138;BME280;22194;50.046;21.954;2022-12-18T11:49:23;100919.21;;;-3.85;77.56
36138;BME280;22194;50.046;21.954;2022-12-18T11:52:15;100919.71;;;-3.87;77.60
36138;BME280;22194;50.046;21.954;2022-12-18T11:54:45;100928.60;;;-3.84;77.10
36138;BME280;22194;50.046;21.954;2022-12-18T12:00:16;100929.98;;;-3.84;76.92
36138;BME280;22194;50.046;21.954;2022-12-18T12:05:50;100930.56;;;-3.80;77.21
36138;BME280;22194;50.046;21.954;2022-12-18T12:14:01;100934.23;;;-3.90;76.47
36138;BME280;22194;50.046;21.954;2022-12-18T12:16:48;100927.72;;;-3.96;76.86
36138;BME280;22194;50.046;21.954;2022-12-18T12:27:38;100935.36;;;-3.95;77.15
36138;BME280;22194;50.046;21.954;2022-12-18T12:30:42;100939.02;;;-3.94;77.21
36138;BME280;22194;50.046;21.954;2022-12-18T12:38:25;100943.35;;;-4.04;77.09
36138;BME280;22194;50.046;21.954;2022-12-18T12:40:59;100948.25;;;-4.01;76.99
36138;BME280;22194;50.046;21.954;2022-12-18T12:43:57;100955.04;;;-3.99;77.04
36138;BME280;22194;50.046;21.954;2022-12-18T12:46:29;100956.41;;;-4.00;76.99
36138;BME280;22194;50.046;21.954;2022-12-18T12:49:02;100962.52;;;-3.98;76.92
36138;BME280;22194;50.046;21.954;2022-12-18T12:51:40;100963.45;;;-3.95;76.94
36138;BME280;22194;50.046;21.954;2022-12-18T12:54:22;100964.52;;;-3.93;77.00
36138;BME280;22194;50.046;21.954;2022-12-18T12:59:29;100963.52;;;-4.00;77.05
36138;BME280;22194;50.046;21.954;2022-12-18T13:05:26;100972.77;;;-4.06;76.97
36138;BME280;22194;50.046;21.954;2022-12-18T13:07:57;100976.34;;;-4.11;76.66
36138;BME280;22194;50.046;21.954;2022-12-18T13:10:37;100983.08;;;-4.11;76.87
36138;BME280;22194;50.046;21.954;2022-12-18T13:13:09;100987.46;;;-4.09;76.77
36138;BME280;22194;50.046;21.954;2022-12-18T13:15:47;100989.55;;;-4.07;76.78
36138;BME280;22194;50.046;21.954;2022-12-18T13:18:20;100991.98;;;-4.08;76.95
36138;BME280;22194;50.046;21.954;2022-12-18T13:23:34;100994.11;;;-4.05;76.88
36138;BME280;22194;50.046;21.954;2022-12-18T13:34:19;101024.27;;;-4.04;76.93
36138;BME280;22194;50.046;21.954;2022-12-18T13:37:39;101026.52;;;-4.14;76.77
36138;BME280;22194;50.046;21.954;2022-12-18T13:46:02;101041.83;;;-4.29;76.86
36138;BME280;22194;50.046;21.954;2022-12-18T13:48:37;101045.59;;;-4.31;76.78
36138;BME280;22194;50.046;21.954;2022-12-18T13:51:09;101051.34;;;-4.30;76.70
36138;BME280;22194;50.046;21.954;2022-12-18T13:53:47;101054.33;;;-4.27;76.48
36138;BME280;22194;50.046;21.954;2022-12-18T13:56:23;101057.45;;;-4.27;76.79
36138;BME280;22194;50.046;21.954;2022-12-18T14:01:45;101075.95;;;-4.29;76.43
36138;BME280;22194;50.046;21.954;2022-12-18T14:04:26;101080.63;;;-4.30;76.58
36138;BME280;22194;50.046;21.954;2022-12-18T14:07:25;101085.85;;;-4.28;76.50
36138;BME280;22194;50.046;21.954;2022-12-18T14:10:01;101101.98;;;-4.26;76.79
36138;BME280;22194;50.046;21.954;2022-12-18T14:12:51;101107.27;;;-4.30;76.67
36138;BME280;22194;50.046;21.954;2022-12-18T14:15:42;101110.95;;;-4.37;76.26
36138;BME280;22194;50.046;21.954;2022-12-18T14:18:30;101108.76;;;-4.42;76.35
36138;BME280;22194;50.046;21.954;2022-12-18T14:21:02;101107.74;;;-4.49;76.14
36138;BME280;22194;50.046;21.954;2022-12-18T14:23:40;101109.09;;;-4.52;76.16
36138;BME280;22194;50.046;21.954;2022-12-18T14:26:31;101111.98;;;-4.54;76.24
36138;BME280;22194;50.046;21.954;2022-12-18T14:34:49;101102.55;;;-4.50;76.05
36138;BME280;22194;50.046;21.954;2022-12-18T14:37:24;101108.79;;;-4.50;76.32
36138;BME280;22194;50.046;21.954;2022-12-18T14:39:55;101112.98;;;-4.56;76.12
36138;BME280;22194;50.046;21.954;2022-12-18T14:42:26;101112.56;;;-4.59;76.01
36138;BME280;22194;50.046;21.954;2022-12-18T14:45:34;101110.66;;;-4.59;76.15
36138;BME280;22194;50.046;21.954;2022-12-18T14:48:20;101112.08;;;-4.57;76.15
36138;BME280;22194;50.046;21.954;2022-12-18T14:51:20;101109.31;;;-4.57;76.18
36138;BME280;22194;50.046;21.954;2022-12-18T14:54:00;101105.36;;;-4.55;76.08